Terminal Aerodrome Forecast
Issued by NWS

Home | Current Version | Previous Version | Text Only | Print | Product List | Glossary On
Versions: 1 2 3 4 5 6 7 8 9 10 11 12 13 14 15 16 17 18
000
FTAK31 PAJN 250100 AAA
TAFAPG
TAF AMD
PAPG 250136Z 2502/2524 12012G20KT 5SM -RA SCT018 OVC040
      WS020/18040KT
      TEMPO 2502/2506 2SM RA BR BKN018 OVC030
     FM250800 21015G25KT 4SM -RA BR SCT008 OVC015 WS020/20050KT
     FM251100 23010G20KT 5SM -RA BR SCT008 OVC020 WS020/25030KT
     FM251500 21008KT 6SM -RA SCT010 OVC025
     FM251800 VRB06KT 6SM -RA SCT010 BKN030
      AMD LTD TO CLD VIS AND WIND 2506/2515=

USA.gov is the U.S. government's official web portal to all federal, state and local government web resources and services.